ETD652 OKKK-OMAA
Flight info
| Callsign | ETD652 |
|---|---|
| Flight time | 1h 12m |
| Altitude | 39000 |
| Route | BOXIK B416 IMDOX P975 LONOS P708 RESAR/N0472F350 P708 OVONA N318 KAPUM Z522 ALNEV Q415 UKILI |
| Aircraft | A21N/M-SDE2E3FGHIRWXY/LB1 |
Departure
| Time | 2026-05-06 08:37 |
|---|---|
| Airport | Kuwait International Airport (OKKK) |
Arrival
| Time | 2026-05-06 09:49 |
|---|---|
| Airport | Zayed International Airport (OMAA) |
| Time | Latitude | Longitude | Altitude | Speed | Heading |
|---|---|---|---|---|---|
| 2026-05-06 08:04 | 29.23810 | 47.97307 | 164 ft | 0 kts | 263° |
| 2026-05-06 08:25 | 29.23810 | 47.97311 | 164 ft | 3 kts | 262° |
| 2026-05-06 08:25 | 29.23817 | 47.97340 | 165 ft | 4 kts | 241° |
| 2026-05-06 08:26 | 29.23834 | 47.97362 | 165 ft | 4 kts | 207° |
| 2026-05-06 08:26 | 29.23858 | 47.97368 | 165 ft | 4 kts | 173° |
| 2026-05-06 08:26 | 29.23881 | 47.97361 | 165 ft | 1 kts | 153° |
| 2026-05-06 08:26 | 29.23882 | 47.97360 | 165 ft | 0 kts | 153° |
| 2026-05-06 08:28 | 29.23878 | 47.97363 | 165 ft | 2 kts | 153° |
| 2026-05-06 08:29 | 29.23857 | 47.97375 | 165 ft | 5 kts | 154° |
| 2026-05-06 08:29 | 29.23817 | 47.97397 | 166 ft | 8 kts | 154° |
| 2026-05-06 08:29 | 29.23759 | 47.97429 | 166 ft | 11 kts | 154° |
| 2026-05-06 08:29 | 29.23679 | 47.97451 | 167 ft | 14 kts | 196° |
| 2026-05-06 08:30 | 29.23624 | 47.97364 | 165 ft | 13 kts | 246° |
| 2026-05-06 08:30 | 29.23585 | 47.97260 | 163 ft | 15 kts | 246° |
| 2026-05-06 08:30 | 29.23539 | 47.97146 | 161 ft | 17 kts | 245° |
| 2026-05-06 08:30 | 29.23488 | 47.97019 | 160 ft | 18 kts | 245° |
| 2026-05-06 08:31 | 29.23433 | 47.96882 | 160 ft | 20 kts | 245° |
| 2026-05-06 08:31 | 29.23387 | 47.96784 | 161 ft | 11 kts | 218° |
| 2026-05-06 08:31 | 29.23301 | 47.96799 | 163 ft | 15 kts | 154° |
| 2026-05-06 08:31 | 29.23199 | 47.96854 | 164 ft | 18 kts | 155° |
| 2026-05-06 08:32 | 29.23080 | 47.96915 | 166 ft | 20 kts | 155° |
| 2026-05-06 08:32 | 29.22946 | 47.96985 | 167 ft | 22 kts | 155° |
| 2026-05-06 08:32 | 29.22798 | 47.97063 | 169 ft | 25 kts | 155° |
| 2026-05-06 08:32 | 29.22636 | 47.97149 | 170 ft | 27 kts | 155° |
| 2026-05-06 08:33 | 29.22461 | 47.97243 | 173 ft | 29 kts | 155° |
| 2026-05-06 08:33 | 29.22279 | 47.97341 | 175 ft | 28 kts | 155° |
| 2026-05-06 08:33 | 29.22121 | 47.97425 | 177 ft | 26 kts | 155° |
| 2026-05-06 08:33 | 29.21951 | 47.97515 | 178 ft | 28 kts | 155° |
| 2026-05-06 08:34 | 29.21780 | 47.97607 | 180 ft | 25 kts | 155° |
| 2026-05-06 08:34 | 29.21448 | 47.97782 | 189 ft | 20 kts | 155° |
| 2026-05-06 08:34 | 29.21335 | 47.97844 | 186 ft | 15 kts | 154° |
| 2026-05-06 08:35 | 29.21251 | 47.97808 | 185 ft | 12 kts | 242° |
| 2026-05-06 08:35 | 29.21248 | 47.97801 | 186 ft | 2 kts | 243° |
| 2026-05-06 08:35 | 29.21242 | 47.97769 | 188 ft | 6 kts | 272° |
| 2026-05-06 08:35 | 29.21267 | 47.97706 | 199 ft | 11 kts | 301° |
| 2026-05-06 08:36 | 29.21314 | 47.97620 | 199 ft | 14 kts | 314° |
| 2026-05-06 08:36 | 29.21360 | 47.97587 | 199 ft | 0 kts | 335° |
| 2026-05-06 08:36 | 29.21408 | 47.97562 | 198 ft | 33 kts | 335° |
| 2026-05-06 08:36 | 29.21864 | 47.97318 | 193 ft | 108 kts | 335° |
| 2026-05-06 08:37 | 29.22717 | 47.96864 | 195 ft | 161 kts | 338° |
| 2026-05-06 08:37 | 29.23750 | 47.96271 | 699 ft | 169 kts | 338° |
| 2026-05-06 08:37 | 29.24856 | 47.95683 | 1293 ft | 181 kts | 339° |
| 2026-05-06 08:37 | 29.26041 | 47.95080 | 1901 ft | 192 kts | 336° |
| 2026-05-06 08:38 | 29.27303 | 47.94404 | 2512 ft | 211 kts | 336° |
| 2026-05-06 08:38 | 29.28703 | 47.93655 | 3119 ft | 232 kts | 336° |
| 2026-05-06 08:38 | 29.30223 | 47.92854 | 3825 ft | 248 kts | 335° |
| 2026-05-06 08:38 | 29.31837 | 47.92001 | 4598 ft | 262 kts | 335° |
| 2026-05-06 08:39 | 29.33593 | 47.91261 | 5300 ft | 275 kts | 348° |
| 2026-05-06 08:39 | 29.35531 | 47.91323 | 6116 ft | 287 kts | 15° |
| 2026-05-06 08:39 | 29.37310 | 47.92407 | 6852 ft | 296 kts | 44° |
| 2026-05-06 08:39 | 29.38520 | 47.94305 | 7666 ft | 297 kts | 64° |
| 2026-05-06 08:40 | 29.39462 | 47.96423 | 8536 ft | 300 kts | 65° |
| 2026-05-06 08:40 | 29.40412 | 47.98580 | 9407 ft | 306 kts | 65° |
| 2026-05-06 08:40 | 29.41253 | 48.00847 | 10162 ft | 315 kts | 73° |
| 2026-05-06 08:40 | 29.41738 | 48.03372 | 10565 ft | 335 kts | 84° |
| 2026-05-06 08:41 | 29.41995 | 48.06110 | 10888 ft | 356 kts | 93° |
| 2026-05-06 08:41 | 29.41536 | 48.08944 | 11182 ft | 371 kts | 113° |
| 2026-05-06 08:41 | 29.40255 | 48.11566 | 11464 ft | 384 kts | 132° |
| 2026-05-06 08:41 | 29.38335 | 48.13758 | 11739 ft | 397 kts | 142° |
| 2026-05-06 08:42 | 29.36219 | 48.15881 | 12111 ft | 409 kts | 142° |
| 2026-05-06 08:42 | 29.34107 | 48.18105 | 12660 ft | 415 kts | 141° |
| 2026-05-06 08:42 | 29.32016 | 48.20416 | 13258 ft | 420 kts | 140° |
| 2026-05-06 08:42 | 29.29932 | 48.22777 | 13874 ft | 423 kts | 140° |
| 2026-05-06 08:43 | 29.27865 | 48.25136 | 14376 ft | 427 kts | 139° |
| 2026-05-06 08:43 | 29.25753 | 48.27554 | 14864 ft | 432 kts | 140° |
| 2026-05-06 08:43 | 29.23616 | 48.29998 | 15388 ft | 436 kts | 140° |
| 2026-05-06 08:43 | 29.21457 | 48.32467 | 15915 ft | 440 kts | 140° |
| 2026-05-06 08:44 | 29.19280 | 48.34956 | 16397 ft | 444 kts | 140° |
| 2026-05-06 08:44 | 29.17079 | 48.37466 | 16888 ft | 448 kts | 140° |
| 2026-05-06 08:44 | 29.14863 | 48.40005 | 17372 ft | 452 kts | 140° |
| 2026-05-06 08:44 | 29.12635 | 48.42557 | 17872 ft | 456 kts | 140° |
| 2026-05-06 08:45 | 29.10381 | 48.45132 | 18344 ft | 460 kts | 140° |
| 2026-05-06 08:45 | 29.08120 | 48.47711 | 18826 ft | 462 kts | 140° |
| 2026-05-06 08:45 | 29.05841 | 48.50312 | 19326 ft | 464 kts | 140° |
| 2026-05-06 08:45 | 29.03553 | 48.52928 | 19850 ft | 466 kts | 140° |
| 2026-05-06 08:46 | 29.01246 | 48.55557 | 20364 ft | 469 kts | 140° |
| 2026-05-06 08:46 | 28.98929 | 48.58196 | 20895 ft | 471 kts | 140° |
| 2026-05-06 08:46 | 28.96598 | 48.60849 | 21493 ft | 475 kts | 140° |
| 2026-05-06 08:46 | 28.94251 | 48.63516 | 22104 ft | 478 kts | 140° |
| 2026-05-06 08:47 | 28.92692 | 48.65287 | 22482 ft | 479 kts | 140° |
| 2026-05-06 08:47 | 28.89548 | 48.68863 | 23211 ft | 483 kts | 140° |
| 2026-05-06 08:47 | 28.87935 | 48.70694 | 23531 ft | 485 kts | 140° |
| 2026-05-06 08:47 | 28.84743 | 48.74311 | 24034 ft | 490 kts | 140° |
| 2026-05-06 08:48 | 28.83105 | 48.76169 | 24270 ft | 492 kts | 140° |
| 2026-05-06 08:48 | 28.80761 | 48.79040 | 24663 ft | 499 kts | 134° |
| 2026-05-06 08:48 | 28.78818 | 48.82360 | 25106 ft | 506 kts | 125° |
| 2026-05-06 08:48 | 28.77092 | 48.85867 | 25553 ft | 508 kts | 124° |
| 2026-05-06 08:49 | 28.75404 | 48.89358 | 25979 ft | 509 kts | 124° |
| 2026-05-06 08:49 | 28.73692 | 48.92879 | 26437 ft | 509 kts | 124° |
| 2026-05-06 08:49 | 28.71962 | 48.96419 | 26881 ft | 510 kts | 125° |
| 2026-05-06 08:49 | 28.70222 | 48.99959 | 27303 ft | 511 kts | 125° |
| 2026-05-06 08:50 | 28.68486 | 49.03493 | 27724 ft | 512 kts | 125° |
| 2026-05-06 08:50 | 28.66744 | 49.07032 | 28156 ft | 512 kts | 126° |
| 2026-05-06 08:50 | 28.64999 | 49.10565 | 28604 ft | 512 kts | 126° |
| 2026-05-06 08:50 | 28.63257 | 49.14101 | 29088 ft | 512 kts | 126° |
| 2026-05-06 08:51 | 28.61533 | 49.17590 | 29528 ft | 512 kts | 126° |
| 2026-05-06 08:51 | 28.59664 | 49.21016 | 29973 ft | 505 kts | 134° |
| 2026-05-06 08:51 | 28.57408 | 49.24014 | 30336 ft | 494 kts | 143° |
| 2026-05-06 08:51 | 28.54765 | 49.26393 | 30711 ft | 477 kts | 156° |
| 2026-05-06 08:52 | 28.51964 | 49.28400 | 31123 ft | 481 kts | 153° |
| 2026-05-06 08:52 | 28.49445 | 49.30996 | 31508 ft | 497 kts | 140° |
| 2026-05-06 08:52 | 28.47353 | 49.34179 | 31883 ft | 507 kts | 132° |
| 2026-05-06 08:52 | 28.45412 | 49.37532 | 32263 ft | 508 kts | 131° |
| 2026-05-06 08:53 | 28.43478 | 49.40894 | 32631 ft | 508 kts | 132° |
| 2026-05-06 08:53 | 28.41521 | 49.44239 | 32979 ft | 508 kts | 132° |
| 2026-05-06 08:53 | 28.39556 | 49.47562 | 33348 ft | 507 kts | 133° |
| 2026-05-06 08:53 | 28.37584 | 49.50880 | 33708 ft | 506 kts | 133° |
| 2026-05-06 08:54 | 28.35610 | 49.54202 | 34017 ft | 507 kts | 133° |
| 2026-05-06 08:54 | 28.33659 | 49.57478 | 34301 ft | 506 kts | 133° |
| 2026-05-06 08:54 | 28.31688 | 49.60785 | 34595 ft | 506 kts | 133° |
| 2026-05-06 08:54 | 28.29722 | 49.64087 | 34884 ft | 505 kts | 133° |
| 2026-05-06 08:55 | 28.27748 | 49.67398 | 35164 ft | 505 kts | 133° |
| 2026-05-06 08:55 | 28.25776 | 49.70698 | 35416 ft | 505 kts | 133° |
| 2026-05-06 08:55 | 28.23794 | 49.73992 | 35650 ft | 503 kts | 135° |
| 2026-05-06 08:55 | 28.21586 | 49.77004 | 35889 ft | 489 kts | 145° |
| 2026-05-06 08:56 | 28.19033 | 49.79448 | 36109 ft | 474 kts | 155° |
| 2026-05-06 08:56 | 28.16330 | 49.81558 | 36336 ft | 471 kts | 157° |
| 2026-05-06 08:56 | 28.13601 | 49.83620 | 36577 ft | 470 kts | 157° |
| 2026-05-06 08:56 | 28.10886 | 49.85685 | 36805 ft | 470 kts | 156° |
| 2026-05-06 08:57 | 28.08210 | 49.87741 | 37021 ft | 471 kts | 156° |
| 2026-05-06 08:57 | 28.05510 | 49.89831 | 37242 ft | 470 kts | 156° |
| 2026-05-06 08:57 | 28.02804 | 49.91925 | 37443 ft | 470 kts | 156° |
| 2026-05-06 08:57 | 28.00108 | 49.94012 | 37641 ft | 470 kts | 156° |
| 2026-05-06 08:58 | 27.97409 | 49.96099 | 37830 ft | 470 kts | 156° |
| 2026-05-06 08:58 | 27.94709 | 49.98187 | 38023 ft | 470 kts | 156° |
| 2026-05-06 08:58 | 27.92006 | 50.00274 | 38222 ft | 470 kts | 156° |
| 2026-05-06 08:58 | 27.89305 | 50.02357 | 38434 ft | 469 kts | 156° |
| 2026-05-06 08:59 | 27.86611 | 50.04433 | 38637 ft | 469 kts | 156° |
| 2026-05-06 08:59 | 27.83908 | 50.06516 | 38827 ft | 469 kts | 156° |
| 2026-05-06 08:59 | 27.81216 | 50.08592 | 38899 ft | 468 kts | 156° |
| 2026-05-06 09:00 | 27.75842 | 50.12725 | 38886 ft | 467 kts | 156° |
| 2026-05-06 09:00 | 27.70467 | 50.16858 | 38867 ft | 467 kts | 156° |
| 2026-05-06 09:01 | 27.65122 | 50.20944 | 38871 ft | 467 kts | 156° |
| 2026-05-06 09:01 | 27.59743 | 50.25066 | 38871 ft | 468 kts | 156° |
| 2026-05-06 09:02 | 27.54360 | 50.29192 | 38867 ft | 468 kts | 155° |
| 2026-05-06 09:02 | 27.48975 | 50.33311 | 38860 ft | 468 kts | 155° |
| 2026-05-06 09:03 | 27.43598 | 50.37428 | 38858 ft | 468 kts | 155° |
| 2026-05-06 09:03 | 27.38213 | 50.41547 | 38863 ft | 467 kts | 155° |
| 2026-05-06 09:04 | 27.32905 | 50.45700 | 38862 ft | 471 kts | 152° |
| 2026-05-06 09:04 | 27.27643 | 50.50175 | 38860 ft | 471 kts | 152° |
| 2026-05-06 09:05 | 27.22420 | 50.54624 | 38854 ft | 470 kts | 152° |
| 2026-05-06 09:05 | 27.17204 | 50.59056 | 38858 ft | 470 kts | 152° |
| 2026-05-06 09:06 | 27.12020 | 50.63447 | 38857 ft | 469 kts | 152° |
| 2026-05-06 09:06 | 27.06794 | 50.67833 | 38849 ft | 466 kts | 154° |
| 2026-05-06 09:07 | 27.01401 | 50.71835 | 38855 ft | 464 kts | 156° |
| 2026-05-06 09:07 | 26.95999 | 50.75786 | 38848 ft | 464 kts | 155° |
| 2026-05-06 09:08 | 26.90601 | 50.79742 | 38838 ft | 463 kts | 155° |
| 2026-05-06 09:08 | 26.85206 | 50.83695 | 38843 ft | 462 kts | 155° |
| 2026-05-06 09:09 | 26.79850 | 50.87610 | 38841 ft | 462 kts | 155° |
| 2026-05-06 09:09 | 26.74472 | 50.91536 | 38840 ft | 461 kts | 155° |
| 2026-05-06 09:10 | 26.69088 | 50.95467 | 38841 ft | 461 kts | 155° |
| 2026-05-06 09:10 | 26.63713 | 50.99382 | 38842 ft | 460 kts | 155° |
| 2026-05-06 09:11 | 26.58348 | 51.03289 | 38841 ft | 460 kts | 155° |
| 2026-05-06 09:11 | 26.52979 | 51.07193 | 38840 ft | 460 kts | 155° |
| 2026-05-06 09:12 | 26.47657 | 51.11057 | 38839 ft | 459 kts | 155° |
| 2026-05-06 09:12 | 26.42302 | 51.14946 | 38839 ft | 459 kts | 155° |
| 2026-05-06 09:13 | 26.36945 | 51.18823 | 38837 ft | 459 kts | 155° |
| 2026-05-06 09:13 | 26.31592 | 51.22701 | 38839 ft | 459 kts | 155° |
| 2026-05-06 09:14 | 26.26231 | 51.26578 | 38840 ft | 459 kts | 155° |
| 2026-05-06 09:14 | 26.20872 | 51.30447 | 38831 ft | 459 kts | 155° |
| 2026-05-06 09:15 | 26.15510 | 51.34314 | 38829 ft | 459 kts | 155° |
| 2026-05-06 09:15 | 26.10160 | 51.38214 | 38833 ft | 462 kts | 152° |
| 2026-05-06 09:15 | 26.07691 | 51.40557 | 38833 ft | 473 kts | 141° |
| 2026-05-06 09:16 | 26.05625 | 51.43471 | 38840 ft | 485 kts | 128° |
| 2026-05-06 09:16 | 26.02293 | 51.50042 | 38830 ft | 488 kts | 124° |
| 2026-05-06 09:17 | 25.99033 | 51.56599 | 38834 ft | 487 kts | 125° |
| 2026-05-06 09:17 | 25.95699 | 51.63157 | 38830 ft | 487 kts | 125° |
| 2026-05-06 09:18 | 25.92361 | 51.69710 | 38828 ft | 487 kts | 125° |
| 2026-05-06 09:18 | 25.89076 | 51.76304 | 38830 ft | 487 kts | 124° |
| 2026-05-06 09:19 | 25.85835 | 51.82918 | 38832 ft | 487 kts | 124° |
| 2026-05-06 09:19 | 25.82711 | 51.89627 | 38829 ft | 490 kts | 120° |
| 2026-05-06 09:20 | 25.79847 | 51.96453 | 38830 ft | 491 kts | 120° |
| 2026-05-06 09:20 | 25.76960 | 52.03332 | 38829 ft | 491 kts | 120° |
| 2026-05-06 09:21 | 25.74070 | 52.10197 | 38834 ft | 491 kts | 120° |
| 2026-05-06 09:21 | 25.71167 | 52.17070 | 38830 ft | 491 kts | 120° |
| 2026-05-06 09:22 | 25.68262 | 52.23934 | 38828 ft | 491 kts | 120° |
| 2026-05-06 09:22 | 25.65378 | 52.30757 | 38832 ft | 491 kts | 119° |
| 2026-05-06 09:23 | 25.62479 | 52.37614 | 38835 ft | 492 kts | 120° |
| 2026-05-06 09:23 | 25.59261 | 52.44270 | 38841 ft | 489 kts | 123° |
| 2026-05-06 09:24 | 25.55938 | 52.50832 | 37772 ft | 492 kts | 124° |
| 2026-05-06 09:24 | 25.54243 | 52.54178 | 36616 ft | 502 kts | 123° |
| 2026-05-06 09:24 | 25.52527 | 52.57559 | 35672 ft | 505 kts | 123° |
| 2026-05-06 09:24 | 25.50809 | 52.60959 | 34760 ft | 507 kts | 123° |
| 2026-05-06 09:25 | 25.49089 | 52.64368 | 33884 ft | 508 kts | 123° |
| 2026-05-06 09:25 | 25.47358 | 52.67788 | 32861 ft | 510 kts | 123° |
| 2026-05-06 09:25 | 25.45646 | 52.71168 | 31868 ft | 511 kts | 123° |
| 2026-05-06 09:25 | 25.43817 | 52.74592 | 30840 ft | 511 kts | 125° |
| 2026-05-06 09:26 | 25.41997 | 52.77925 | 29790 ft | 513 kts | 124° |
| 2026-05-06 09:26 | 25.40147 | 52.81301 | 28652 ft | 513 kts | 124° |
| 2026-05-06 09:26 | 25.38289 | 52.84629 | 27998 ft | 503 kts | 124° |
| 2026-05-06 09:26 | 25.36437 | 52.87920 | 27549 ft | 503 kts | 124° |
| 2026-05-06 09:27 | 25.34600 | 52.91200 | 27129 ft | 499 kts | 124° |
| 2026-05-06 09:27 | 25.32797 | 52.94432 | 26689 ft | 489 kts | 124° |
| 2026-05-06 09:27 | 25.31158 | 52.97690 | 26243 ft | 481 kts | 117° |
| 2026-05-06 09:27 | 25.29768 | 53.01040 | 25800 ft | 479 kts | 116° |
| 2026-05-06 09:28 | 25.28400 | 53.04399 | 25361 ft | 479 kts | 116° |
| 2026-05-06 09:28 | 25.27033 | 53.07759 | 24910 ft | 479 kts | 115° |
| 2026-05-06 09:28 | 25.25663 | 53.11119 | 24461 ft | 479 kts | 115° |
| 2026-05-06 09:28 | 25.24291 | 53.14474 | 24009 ft | 479 kts | 115° |
| 2026-05-06 09:29 | 25.22925 | 53.17819 | 23558 ft | 476 kts | 115° |
| 2026-05-06 09:29 | 25.21561 | 53.21142 | 23049 ft | 473 kts | 115° |
| 2026-05-06 09:29 | 25.20204 | 53.24436 | 22541 ft | 467 kts | 115° |
| 2026-05-06 09:29 | 25.18864 | 53.27690 | 22066 ft | 464 kts | 115° |
| 2026-05-06 09:30 | 25.17369 | 53.30772 | 21607 ft | 458 kts | 123° |
| 2026-05-06 09:30 | 25.15458 | 53.33580 | 21163 ft | 454 kts | 130° |
| 2026-05-06 09:30 | 25.13447 | 53.36254 | 20726 ft | 452 kts | 130° |
| 2026-05-06 09:30 | 25.11447 | 53.38900 | 20285 ft | 447 kts | 130° |
| 2026-05-06 09:31 | 25.09469 | 53.41531 | 19847 ft | 444 kts | 130° |
| 2026-05-06 09:31 | 25.07512 | 53.44143 | 19417 ft | 440 kts | 130° |
| 2026-05-06 09:31 | 25.05574 | 53.46727 | 18993 ft | 435 kts | 130° |
| 2026-05-06 09:31 | 25.03657 | 53.49282 | 18573 ft | 431 kts | 130° |
| 2026-05-06 09:32 | 25.01752 | 53.51823 | 18152 ft | 427 kts | 130° |
| 2026-05-06 09:32 | 24.99875 | 53.54325 | 17665 ft | 418 kts | 129° |
| 2026-05-06 09:32 | 24.97934 | 53.56693 | 17189 ft | 420 kts | 136° |
| 2026-05-06 09:32 | 24.95649 | 53.58705 | 16734 ft | 421 kts | 146° |
| 2026-05-06 09:33 | 24.93090 | 53.60257 | 16303 ft | 419 kts | 153° |
| 2026-05-06 09:33 | 24.90464 | 53.61643 | 15883 ft | 418 kts | 153° |
| 2026-05-06 09:33 | 24.87839 | 53.63017 | 15465 ft | 416 kts | 153° |
| 2026-05-06 09:33 | 24.85230 | 53.64392 | 15047 ft | 415 kts | 153° |
| 2026-05-06 09:34 | 24.82597 | 53.65791 | 14701 ft | 431 kts | 153° |
| 2026-05-06 09:34 | 24.79931 | 53.67214 | 14360 ft | 426 kts | 152° |
| 2026-05-06 09:34 | 24.77415 | 53.68921 | 13972 ft | 414 kts | 139° |
| 2026-05-06 09:34 | 24.75526 | 53.71187 | 13592 ft | 403 kts | 122° |
| 2026-05-06 09:35 | 24.74112 | 53.73813 | 13176 ft | 398 kts | 117° |
| 2026-05-06 09:35 | 24.72792 | 53.76472 | 12762 ft | 396 kts | 116° |
| 2026-05-06 09:35 | 24.71474 | 53.79123 | 12362 ft | 394 kts | 116° |
| 2026-05-06 09:35 | 24.70160 | 53.81747 | 11982 ft | 384 kts | 116° |
| 2026-05-06 09:36 | 24.68884 | 53.84265 | 11724 ft | 369 kts | 116° |
| 2026-05-06 09:36 | 24.67655 | 53.86681 | 11516 ft | 354 kts | 116° |
| 2026-05-06 09:36 | 24.66869 | 53.88223 | 11397 ft | 345 kts | 116° |
| 2026-05-06 09:36 | 24.65720 | 53.90477 | 11226 ft | 331 kts | 116° |
| 2026-05-06 09:37 | 24.64612 | 53.92642 | 11069 ft | 319 kts | 116° |
| 2026-05-06 09:37 | 24.63651 | 53.94779 | 10918 ft | 304 kts | 107° |
| 2026-05-06 09:37 | 24.63064 | 53.96990 | 10556 ft | 300 kts | 102° |
| 2026-05-06 09:37 | 24.62552 | 53.99208 | 10128 ft | 299 kts | 101° |
| 2026-05-06 09:38 | 24.62038 | 54.01418 | 9755 ft | 297 kts | 102° |
| 2026-05-06 09:38 | 24.61521 | 54.03614 | 9340 ft | 296 kts | 102° |
| 2026-05-06 09:38 | 24.61001 | 54.05791 | 8940 ft | 293 kts | 102° |
| 2026-05-06 09:38 | 24.60484 | 54.07955 | 8525 ft | 292 kts | 102° |
| 2026-05-06 09:39 | 24.59969 | 54.10104 | 8159 ft | 289 kts | 102° |
| 2026-05-06 09:39 | 24.59456 | 54.12240 | 7743 ft | 289 kts | 102° |
| 2026-05-06 09:39 | 24.58947 | 54.14357 | 7399 ft | 285 kts | 102° |
| 2026-05-06 09:39 | 24.58536 | 54.16480 | 6988 ft | 283 kts | 92° |
| 2026-05-06 09:40 | 24.58809 | 54.18584 | 6604 ft | 277 kts | 68° |
| 2026-05-06 09:40 | 24.59704 | 54.20446 | 6221 ft | 276 kts | 58° |
| 2026-05-06 09:40 | 24.61699 | 54.24024 | 5445 ft | 273 kts | 58° |
| 2026-05-06 09:41 | 24.62681 | 54.25808 | 5037 ft | 273 kts | 59° |
| 2026-05-06 09:41 | 24.63655 | 54.27583 | 4710 ft | 270 kts | 59° |
| 2026-05-06 09:41 | 24.64614 | 54.29346 | 4372 ft | 267 kts | 59° |
| 2026-05-06 09:41 | 24.65537 | 54.31052 | 4182 ft | 259 kts | 59° |
| 2026-05-06 09:42 | 24.66356 | 54.32766 | 4041 ft | 248 kts | 70° |
| 2026-05-06 09:42 | 24.66578 | 54.34581 | 3974 ft | 234 kts | 95° |
| 2026-05-06 09:42 | 24.66099 | 54.36231 | 3973 ft | 226 kts | 117° |
| 2026-05-06 09:42 | 24.65165 | 54.37623 | 3990 ft | 227 kts | 133° |
| 2026-05-06 09:43 | 24.64109 | 54.38908 | 4002 ft | 226 kts | 126° |
| 2026-05-06 09:43 | 24.63135 | 54.40269 | 4009 ft | 226 kts | 126° |
| 2026-05-06 09:43 | 24.62169 | 54.41636 | 4003 ft | 226 kts | 126° |
| 2026-05-06 09:43 | 24.61299 | 54.42867 | 4000 ft | 208 kts | 126° |
| 2026-05-06 09:44 | 24.60440 | 54.44085 | 4031 ft | 195 kts | 126° |
| 2026-05-06 09:44 | 24.59624 | 54.45244 | 3891 ft | 194 kts | 126° |
| 2026-05-06 09:44 | 24.58798 | 54.46415 | 3686 ft | 193 kts | 126° |
| 2026-05-06 09:44 | 24.57977 | 54.47580 | 3485 ft | 193 kts | 126° |
| 2026-05-06 09:45 | 24.57155 | 54.48745 | 3212 ft | 192 kts | 126° |
| 2026-05-06 09:45 | 24.56335 | 54.49908 | 2994 ft | 193 kts | 126° |
| 2026-05-06 09:45 | 24.55518 | 54.51066 | 2725 ft | 191 kts | 127° |
| 2026-05-06 09:45 | 24.54713 | 54.52208 | 2486 ft | 188 kts | 127° |
| 2026-05-06 09:46 | 24.53901 | 54.53360 | 2337 ft | 193 kts | 128° |
| 2026-05-06 09:46 | 24.53081 | 54.54523 | 2005 ft | 191 kts | 128° |
| 2026-05-06 09:46 | 24.52278 | 54.55659 | 1759 ft | 184 kts | 128° |
| 2026-05-06 09:46 | 24.51530 | 54.56719 | 1567 ft | 168 kts | 129° |
| 2026-05-06 09:47 | 24.50840 | 54.57694 | 1353 ft | 155 kts | 129° |
| 2026-05-06 09:47 | 24.50210 | 54.58586 | 1141 ft | 143 kts | 129° |
| 2026-05-06 09:47 | 24.49594 | 54.59459 | 999 ft | 146 kts | 130° |
| 2026-05-06 09:47 | 24.48979 | 54.60330 | 853 ft | 144 kts | 129° |
| 2026-05-06 09:48 | 24.48390 | 54.61196 | 697 ft | 143 kts | 129° |
| 2026-05-06 09:48 | 24.47774 | 54.62055 | 568 ft | 143 kts | 131° |
| 2026-05-06 09:48 | 24.47162 | 54.62919 | 365 ft | 142 kts | 130° |
| 2026-05-06 09:48 | 24.46553 | 54.63782 | 135 ft | 143 kts | 130° |
| 2026-05-06 09:49 | 24.45967 | 54.64609 | 79 ft | 129 kts | 128° |
| 2026-05-06 09:49 | 24.45490 | 54.65255 | 80 ft | 78 kts | 129° |
| 2026-05-06 09:49 | 24.45267 | 54.65495 | 82 ft | 37 kts | 144° |
| 2026-05-06 09:49 | 24.45136 | 54.65585 | 83 ft | 15 kts | 153° |
| 2026-05-06 09:50 | 24.45034 | 54.65629 | 82 ft | 15 kts | 169° |
| 2026-05-06 09:50 | 24.44941 | 54.65577 | 86 ft | 17 kts | 219° |
| 2026-05-06 09:50 | 24.44841 | 54.65488 | 86 ft | 20 kts | 218° |
| 2026-05-06 09:50 | 24.44726 | 54.65391 | 85 ft | 22 kts | 217° |
| 2026-05-06 09:51 | 24.44599 | 54.65286 | 86 ft | 24 kts | 217° |
| 2026-05-06 09:51 | 24.44501 | 54.65201 | 86 ft | 17 kts | 233° |
| 2026-05-06 09:51 | 24.44534 | 54.65077 | 82 ft | 20 kts | 309° |
| 2026-05-06 09:51 | 24.44624 | 54.64953 | 83 ft | 22 kts | 308° |
| 2026-05-06 09:52 | 24.44717 | 54.64820 | 81 ft | 23 kts | 307° |
| 2026-05-06 09:52 | 24.44806 | 54.64693 | 84 ft | 19 kts | 307° |
| 2026-05-06 09:52 | 24.44847 | 54.64570 | 81 ft | 14 kts | 260° |
| 2026-05-06 09:52 | 24.44757 | 54.64541 | 84 ft | 17 kts | 160° |
| 2026-05-06 09:53 | 24.44656 | 54.64622 | 84 ft | 20 kts | 130° |
| 2026-05-06 09:53 | 24.44590 | 54.64650 | 81 ft | 13 kts | 228° |
| 2026-05-06 09:53 | 24.44559 | 54.64591 | 85 ft | 7 kts | 239° |
| 2026-05-06 09:53 | 24.44557 | 54.64589 | 84 ft | 0 kts | 239° |